Time;durP1;ratioP1;P1;durP2;ratioP2;P2;SDS_P1;SDS_P2;PMS_P1;PMS_P2;Temp;Humidity;BMP_temperature;BMP_pressure;BME280_temperature;BME280_humidity;BME280_pressure;Samples;Min_cycle;Max_cycle;Signal;HPM_P1;HPM_P2
2021/06/15 00:00:45;;;;;;;10.75;7.72;;;;;;;18.91;60.25;100577.03;5016426;28;20060;-77
2021/06/15 00:03:13;;;;;;;10.15;7.65;;;;;;;18.85;60.43;100572.88;5016662;28;20403;-77
2021/06/15 00:05:40;;;;;;;11.00;7.72;;;;;;;18.84;60.31;100571.25;5015924;28;20046;-77
2021/06/15 00:08:07;;;;;;;11.93;7.55;;;;;;;18.83;60.22;100569.59;5015038;28;20122;-77
2021/06/15 00:10:35;;;;;;;11.65;7.53;;;;;;;18.79;60.44;100571.50;5016297;28;20053;-76
2021/06/15 00:13:05;;;;;;;11.40;7.85;;;;;;;18.79;60.55;100568.69;5016757;28;20381;-79
2021/06/15 00:15:32;;;;;;;;;;;;;;;18.71;60.37;100564.88;5016690;28;20108;-77
2021/06/15 00:18:00;;;;;;;9.88;7.25;;;;;;;18.65;60.87;100578.44;5016166;28;19922;-76
2021/06/15 00:20:27;;;;;;;9.73;7.07;;;;;;;18.61;61.02;100574.72;5015912;28;20054;-76
2021/06/15 00:22:57;;;;;;;8.32;6.53;;;;;;;18.61;61.13;100577.53;5015991;28;20050;-78
2021/06/15 00:25:24;;;;;;;8.15;7.28;;;;;;;18.55;61.35;100581.00;5015165;28;20249;-76
2021/06/15 00:27:52;;;;;;;10.77;7.28;;;;;;;18.51;61.65;100583.72;5016517;28;20615;-77
2021/06/15 00:30:22;;;;;;;8.73;7.32;;;;;;;18.52;61.49;100576.91;5015492;28;20061;-76
2021/06/15 00:32:50;;;;;;;10.00;7.63;;;;;;;18.47;61.78;100577.19;5015946;28;20054;-76
2021/06/15 00:35:18;;;;;;;9.00;7.05;;;;;;;18.46;61.96;100584.03;5015166;28;20050;-79
2021/06/15 00:37:46;;;;;;;9.13;7.03;;;;;;;18.44;61.96;100580.75;5015311;28;20046;-78
2021/06/15 00:40:13;;;;;;;10.98;7.45;;;;;;;18.41;62.21;100579.44;5017481;28;20423;-78
2021/06/15 00:42:41;;;;;;;10.43;7.18;;;;;;;18.42;61.90;100583.94;5019529;28;20400;-78
2021/06/15 00:45:10;;;;;;;9.38;7.20;;;;;;;18.39;62.25;100589.47;5020523;28;20069;-77
2021/06/15 00:47:42;;;;;;;10.75;7.55;;;;;;;18.36;62.28;100584.56;5020595;28;20060;-78
2021/06/15 00:50:10;;;;;;;9.43;7.18;;;;;;;18.33;62.27;100597.41;5020074;28;20133;-78
2021/06/15 00:52:38;;;;;;;11.02;7.20;;;;;;;18.32;62.41;100592.13;5019869;28;20053;-78
2021/06/15 00:55:07;;;;;;;9.70;7.43;;;;;;;18.29;62.55;100590.00;5020262;28;20065;-78
2021/06/15 00:57:34;;;;;;;8.60;7.40;;;;;;;18.22;62.56;100591.47;5019573;28;20061;-78
2021/06/15 01:00:02;;;;;;;11.13;7.60;;;;;;;18.20;62.63;100595.84;5019425;28;20058;-78
2021/06/15 01:02:32;;;;;;;9.05;7.80;;;;;;;18.13;62.86;100593.66;5018950;28;20054;-77
2021/06/15 01:05:03;;;;;;;8.57;7.30;;;;;;;18.08;62.82;100595.91;5019030;28;20065;-78
2021/06/15 01:07:35;;;;;;;9.52;8.05;;;;;;;18.09;62.68;100581.47;5018952;28;20058;-78
2021/06/15 01:10:07;;;;;;;9.95;7.57;;;;;;;18.07;62.74;100589.47;5018696;28;20057;-77
2021/06/15 01:12:43;;;;;;;12.23;8.52;;;;;;;18.01;63.04;100579.66;5019573;28;20057;-78
2021/06/15 01:15:14;;;;;;;10.98;7.50;;;;;;;18.00;62.95;100583.66;5017869;28;20061;-78
2021/06/15 01:17:48;;;;;;;11.40;7.70;;;;;;;17.89;63.41;100588.16;5017976;28;20061;-78
2021/06/15 01:20:20;;;;;;;13.45;8.23;;;;;;;17.81;63.54;100582.31;5017481;28;20490;-78
2021/06/15 01:23:09;;;;;;;10.55;8.07;;;;;;;17.75;63.98;100580.94;5017042;28;20065;-78
2021/06/15 01:25:47;;;;;;;9.63;7.78;;;;;;;17.74;63.77;100578.47;5018693;28;20050;-78
2021/06/15 01:28:20;;;;;;;11.03;7.97;;;;;;;17.72;63.87;100581.66;5018228;28;20072;-78
2021/06/15 01:30:56;;;;;;;9.60;8.15;;;;;;;17.65;63.92;100590.72;5019005;28;20481;-78
2021/06/15 01:33:25;;;;;;;12.40;8.63;;;;;;;17.64;64.34;100594.75;5018898;28;20050;-78
2021/06/15 01:35:55;;;;;;;12.05;8.75;;;;;;;17.64;64.21;100596.75;5018537;28;20062;-79
2021/06/15 01:38:27;;;;;;;12.98;8.20;;;;;;;17.61;64.13;100600.28;5018454;28;20419;-78
2021/06/15 01:41:02;;;;;;;12.23;8.52;;;;;;;17.55;64.66;100598.88;5019687;28;20404;-78
2021/06/15 01:43:34;;;;;;;11.20;8.20;;;;;;;17.53;64.83;100592.78;5018766;28;20050;-78
2021/06/15 01:46:05;;;;;;;10.25;8.55;;;;;;;17.50;65.15;100591.53;5019063;28;20058;-78
2021/06/15 01:48:40;;;;;;;12.77;8.20;;;;;;;17.50;65.43;100599.16;5018182;28;20050;-78
2021/06/15 01:51:09;;;;;;;10.63;7.93;;;;;;;17.48;65.02;100596.69;5018094;28;20060;-78
2021/06/15 01:53:41;;;;;;;11.82;8.35;;;;;;;17.46;64.96;100599.03;5018002;28;20072;-78
2021/06/15 01:56:09;;;;;;;10.98;8.70;;;;;;;17.47;64.80;100599.84;5017955;28;20058;-78
2021/06/15 01:58:38;;;;;;;15.85;9.57;;;;;;;17.44;64.84;100596.56;5018103;28;20471;-78
2021/06/15 02:01:09;;;;;;;11.93;8.85;;;;;;;17.40;65.03;100594.84;5018279;28;20054;-78
2021/06/15 02:03:36;;;;;;;9.93;8.68;;;;;;;17.41;64.84;100596.50;5018328;28;20049;-79
2021/06/15 02:06:05;;;;;;;16.45;9.25;;;;;;;17.40;64.74;100590.03;5020748;28;20072;-79
2021/06/15 02:08:37;;;;;;;14.90;9.52;;;;;;;17.39;64.37;100590.41;5019551;28;20072;-79
2021/06/15 02:11:05;;;;;;;16.33;9.57;;;;;;;17.37;64.33;100595.56;5022426;28;20054;-79
2021/06/15 02:13:37;;;;;;;11.27;8.68;;;;;;;17.35;64.69;100593.09;5019754;28;20053;-79
2021/06/15 02:16:07;;;;;;;13.55;9.27;;;;;;;17.31;65.12;100597.81;5019598;28;20058;-78
2021/06/15 02:18:35;;;;;;;13.15;8.90;;;;;;;17.21;65.67;100589.88;5017589;28;20054;-78
2021/06/15 02:21:09;;;;;;;13.07;9.38;;;;;;;17.17;65.89;100592.56;5017805;28;20054;-78
2021/06/15 02:23:38;;;;;;;11.52;8.60;;;;;;;17.17;65.85;100591.75;5016495;28;20050;-78
2021/06/15 02:26:08;;;;;;;13.00;9.10;;;;;;;17.16;65.83;100595.75;5016644;28;20057;-78
2021/06/15 02:28:36;;;;;;;12.45;9.27;;;;;;;17.12;66.26;100598.47;5015935;28;20061;-78
2021/06/15 02:31:06;;;;;;;14.00;9.57;;;;;;;17.10;66.43;100597.19;5015821;28;20046;-78
2021/06/15 02:33:41;;;;;;;14.18;9.95;;;;;;;17.10;66.66;100595.19;5015921;28;20387;-78
2021/06/15 02:36:12;;;;;;;13.38;10.05;;;;;;;17.06;67.06;100601.88;5021061;28;20054;-78
2021/06/15 02:38:47;;;;;;;12.70;10.43;;;;;;;17.04;67.09;100597.41;5018140;28;20494;-78
2021/06/15 02:41:16;;;;;;;13.57;9.63;;;;;;;17.04;66.94;100600.22;5017261;28;20057;-78
2021/06/15 02:43:44;;;;;;;12.88;9.50;;;;;;;17.03;66.79;100598.59;5017852;28;20057;-78
2021/06/15 02:46:17;;;;;;;14.10;9.77;;;;;;;17.01;66.85;100606.56;5018453;28;20400;-78
2021/06/15 02:48:49;;;;;;;11.40;8.75;;;;;;;17.03;66.20;100586.53;5018757;28;20058;-78
2021/06/15 02:51:17;;;;;;;11.27;8.98;;;;;;;17.08;65.90;100597.53;5017649;28;20065;-78
2021/06/15 02:53:48;;;;;;;12.30;9.63;;;;;;;17.04;65.93;100594.59;5017174;28;20053;-78
2021/06/15 02:56:20;;;;;;;14.27;9.15;;;;;;;17.06;65.67;100602.69;5014638;28;20065;-78
2021/06/15 02:58:48;;;;;;;12.13;8.95;;;;;;;17.02;65.68;100596.94;5015145;28;20058;-78
2021/06/15 03:01:17;;;;;;;10.85;8.95;;;;;;;16.98;65.92;100593.19;5015969;28;20058;-78
2021/06/15 03:03:44;;;;;;;13.95;9.30;;;;;;;16.94;65.87;100600.72;5016719;28;20049;-78
2021/06/15 03:06:11;;;;;;;15.05;9.88;;;;;;;16.90;66.18;100602.59;5017214;28;20057;-78
2021/06/15 03:08:40;;;;;;;13.98;9.77;;;;;;;16.88;66.47;100595.69;5016142;28;20068;-78
2021/06/15 03:11:08;;;;;;;11.95;10.50;;;;;;;16.88;66.52;100596.50;5015855;28;20058;-78
2021/06/15 03:13:39;;;;;;;12.88;9.85;;;;;;;16.84;66.56;100595.59;5017571;28;20050;-78
2021/06/15 03:16:10;;;;;;;15.18;10.13;;;;;;;16.78;66.72;100594.97;5016255;28;20054;-78
2021/06/15 03:18:44;;;;;;;14.07;10.70;;;;;;;16.73;67.06;100600.00;5016613;28;20054;-78
2021/06/15 03:21:18;;;;;;;14.20;10.98;;;;;;;16.75;67.17;100603.28;5016943;28;20057;-78
2021/06/15 03:23:48;;;;;;;14.15;11.05;;;;;;;16.74;67.33;100601.66;5017230;28;20056;-78
2021/06/15 03:26:19;;;;;;;13.38;11.32;;;;;;;16.75;67.48;100604.09;5020469;28;20069;-78
2021/06/15 03:28:52;;;;;;;15.88;11.82;;;;;;;16.77;67.53;100607.38;5019173;28;20054;-78
2021/06/15 03:31:21;;;;;;;14.82;11.65;;;;;;;16.78;67.72;100611.03;5019771;28;20057;-78
2021/06/15 03:33:53;;;;;;;17.02;11.48;;;;;;;16.78;67.90;100613.84;5020042;28;20064;-78
2021/06/15 03:36:24;;;;;;;15.52;10.85;;;;;;;16.82;68.00;100610.00;5020704;28;20058;-78
2021/06/15 03:38:56;;;;;;;16.50;11.30;;;;;;;16.88;67.53;100616.19;5018552;28;20050;-78
2021/06/15 03:41:25;;;;;;;14.73;11.70;;;;;;;16.90;67.40;100619.47;5019113;28;20487;-77
2021/06/15 03:43:55;;;;;;;13.73;11.73;;;;;;;16.91;67.51;100612.69;5017398;28;20049;-77
2021/06/15 03:46:25;;;;;;;20.65;12.95;;;;;;;16.95;67.54;100610.81;5018100;28;20383;-77
2021/06/15 03:48:55;;;;;;;16.23;11.23;;;;;;;16.97;67.34;100622.53;5016178;28;20049;-77
2021/06/15 03:51:28;;;;;;;16.02;11.68;;;;;;;17.00;67.12;100616.19;5017438;28;20050;-77
2021/06/15 03:54:06;;;;;;;17.08;11.82;;;;;;;17.07;67.04;100609.13;5017224;28;20414;-77
2021/06/15 03:56:36;;;;;;;14.27;10.25;;;;;;;17.09;66.21;100618.03;5016809;28;20383;-77
2021/06/15 03:59:04;;;;;;;13.32;10.82;;;;;;;17.10;66.06;100617.69;5016974;28;20058;-77
2021/06/15 04:01:35;;;;;;;12.95;10.90;;;;;;;17.07;66.25;100609.94;5016978;28;20065;-78
2021/06/15 04:04:06;;;;;;;11.98;9.63;;;;;;;17.11;66.12;100612.88;5017371;28;20058;-78
2021/06/15 04:06:36;;;;;;;12.23;10.35;;;;;;;17.15;65.99;100613.81;5017842;28;20054;-78
2021/06/15 04:09:05;;;;;;;;;;;;;;;17.10;66.08;100619.69;5017557;28;20107;-78
2021/06/15 04:11:37;;;;;;;17.07;11.80;;;;;;;17.10;66.47;100626.13;5016362;28;19928;-78
2021/06/15 04:14:07;;;;;;;15.23;9.95;;;;;;;17.18;66.23;100622.38;5016554;28;20499;-78
2021/06/15 04:16:35;;;;;;;13.02;10.05;;;;;;;17.22;66.34;100633.75;5016565;28;20379;-77
2021/06/15 04:19:05;;;;;;;16.30;10.32;;;;;;;17.25;66.26;100635.84;5016700;28;20050;-78
2021/06/15 04:21:35;;;;;;;12.30;10.55;;;;;;;17.33;66.04;100646.13;5016594;28;20399;-77
2021/06/15 04:24:06;;;;;;;16.38;10.63;;;;;;;17.40;65.75;100642.72;5015797;28;20054;-78
2021/06/15 04:26:34;;;;;;;16.17;10.23;;;;;;;17.45;65.58;100648.91;5018631;28;20058;-78
2021/06/15 04:29:03;;;;;;;12.20;10.00;;;;;;;17.54;65.30;100650.78;5019408;28;20050;-78
2021/06/15 04:31:34;;;;;;;15.07;10.75;;;;;;;17.55;65.66;100653.22;5016847;28;20057;-77
2021/06/15 04:34:04;;;;;;;13.32;10.60;;;;;;;17.61;65.52;100656.59;5016532;28;20057;-78
2021/06/15 04:36:33;;;;;;;15.25;10.02;;;;;;;17.65;65.30;100666.78;5013952;28;20057;-77
2021/06/15 04:39:06;;;;;;;18.83;11.45;;;;;;;17.77;65.15;100668.75;5017597;28;20065;-78
2021/06/15 04:41:37;;;;;;;16.02;11.13;;;;;;;17.90;64.96;100665.91;5017591;28;20061;-77
2021/06/15 04:44:15;;;;;;;13.38;11.38;;;;;;;17.99;64.46;100672.19;5017124;28;20058;-78
2021/06/15 04:46:46;;;;;;;14.85;11.07;;;;;;;18.11;64.40;100676.97;5015138;28;20049;-78
2021/06/15 04:49:19;;;;;;;16.10;11.25;;;;;;;18.20;64.19;100678.41;5017293;28;20069;-78
2021/06/15 04:51:51;;;;;;;15.27;12.40;;;;;;;18.33;63.84;100670.72;5016874;28;20069;-78
2021/06/15 04:54:22;;;;;;;11.68;10.32;;;;;;;18.46;64.11;100679.94;5017306;28;20054;-78
2021/06/15 04:56:50;;;;;;;15.82;10.80;;;;;;;18.55;63.82;100677.72;5018134;28;20054;-78
2021/06/15 04:59:21;;;;;;;17.98;11.35;;;;;;;18.71;63.50;100689.03;5006591;28;20492;-78
2021/06/15 05:01:49;;;;;;;15.57;12.55;;;;;;;18.83;64.10;100688.13;5017738;28;20058;-78
2021/06/15 05:04:18;;;;;;;17.25;14.40;;;;;;;19.03;64.24;100687.00;5017875;28;20416;-78
2021/06/15 05:06:48;;;;;;;19.40;16.75;;;;;;;19.16;64.28;100684.88;5014622;28;20053;-78
2021/06/15 05:09:18;;;;;;;22.55;18.77;;;;;;;19.37;63.99;100689.41;5016600;28;20058;-78
2021/06/15 05:11:46;;;;;;;;;;;;;;;19.44;64.01;100687.56;5009900;28;20510;-78
2021/06/15 05:14:14;;;;;;;23.73;18.35;;;;;;;19.58;63.83;100689.84;5017874;28;19921;-78
2021/06/15 05:16:43;;;;;;;25.30;19.50;;;;;;;19.69;63.61;100701.38;5008362;28;20049;-77
2021/06/15 05:19:10;;;;;;;19.33;16.50;;;;;;;19.87;62.90;100708.28;5015125;28;20053;-75
2021/06/15 05:21:44;;;;;;;22.60;17.17;;;;;;;19.78;63.32;100707.69;5012781;28;20054;-74
2021/06/15 05:24:27;;;;;;;22.05;17.95;;;;;;;19.99;62.73;100710.16;5005763;28;20050;-74
2021/06/15 05:26:54;;;;;;;22.50;16.77;;;;;;;20.23;62.40;100717.47;5015478;28;20049;-74
2021/06/15 05:29:22;;;;;;;21.80;18.00;;;;;;;20.46;61.43;100717.50;5014445;28;20072;-75
2021/06/15 05:31:49;;;;;;;22.17;17.90;;;;;;;20.49;61.51;100718.75;5010673;28;20057;-75
2021/06/15 05:34:16;;;;;;;18.83;16.83;;;;;;;20.73;60.86;100719.63;5014927;28;20487;-75
2021/06/15 05:36:43;;;;;;;24.40;19.60;;;;;;;20.40;61.69;100723.84;5015176;28;20057;-75
2021/06/15 05:39:11;;;;;;;22.13;17.27;;;;;;;20.65;60.98;100721.50;5015089;28;20057;-75
2021/06/15 05:41:40;;;;;;;22.40;17.85;;;;;;;20.72;60.88;100724.44;5014647;28;20383;-74
2021/06/15 05:44:07;;;;;;;23.40;18.35;;;;;;;20.64;61.07;100720.69;5012218;28;20410;-75
2021/06/15 05:46:34;;;;;;;20.40;17.25;;;;;;;20.79;60.59;100718.09;5013556;28;20364;-75
2021/06/15 05:49:02;;;;;;;23.50;18.00;;;;;;;21.05;59.89;100714.50;5013949;28;20077;-75
2021/06/15 05:51:32;;;;;;;24.52;19.40;;;;;;;20.75;60.82;100717.25;5014638;28;20064;-74
2021/06/15 05:54:02;;;;;;;21.30;18.00;;;;;;;20.92;60.28;100711.06;5014191;28;20057;-74
2021/06/15 05:56:30;;;;;;;28.13;19.92;;;;;;;21.15;59.62;100710.19;5013326;28;20053;-75
2021/06/15 05:58:59;;;;;;;23.73;18.70;;;;;;;21.24;59.24;100700.22;5014252;28;20487;-78
2021/06/15 06:01:27;;;;;;;23.30;18.33;;;;;;;21.35;58.88;100700.38;5018293;28;20054;-78
2021/06/15 06:04:00;;;;;;;25.65;18.55;;;;;;;21.50;58.71;100695.75;5018818;28;20053;-78
2021/06/15 06:09:13;;;;;;;27.40;19.80;;;;;;;21.37;58.84;100691.50;5019464;28;20050;-78
2021/06/15 06:11:41;;;;;;;24.08;19.25;;;;;;;21.27;58.99;100695.78;5018486;28;20061;-78
2021/06/15 06:14:10;;;;;;;22.97;19.67;;;;;;;21.35;59.15;100689.03;5021193;28;20054;-78
2021/06/15 06:16:40;;;;;;;22.73;19.77;;;;;;;21.52;58.73;100686.88;5018137;28;20391;-79
2021/06/15 06:19:07;;;;;;;21.92;18.27;;;;;;;21.40;58.38;100679.41;4999172;28;20510;-78
2021/06/15 06:21:36;;;;;;;22.88;18.52;;;;;;;21.57;58.09;100683.72;5008966;28;20050;-77
2021/06/15 06:24:05;;;;;;;20.47;17.90;;;;;;;21.65;57.88;100696.78;5013426;28;20065;-78
2021/06/15 06:26:33;;;;;;;23.38;18.63;;;;;;;21.70;57.54;100704.94;5012292;28;20077;-78
2021/06/15 06:29:01;;;;;;;22.50;19.98;;;;;;;21.73;57.55;100709.81;5004684;28;20057;-78
2021/06/15 06:31:30;;;;;;;22.20;18.52;;;;;;;21.78;57.68;100714.38;5011783;28;20057;-78
2021/06/15 06:33:57;;;;;;;20.83;17.77;;;;;;;21.86;57.74;100724.59;5013480;28;20069;-78
2021/06/15 06:36:25;;;;;;;25.50;18.08;;;;;;;21.98;57.07;100723.50;5013909;28;20368;-78
2021/06/15 06:38:52;;;;;;;22.50;19.25;;;;;;;22.09;56.67;100724.47;4997554;28;20050;-78
2021/06/15 06:41:20;;;;;;;23.50;18.45;;;;;;;22.21;56.35;100712.84;4995298;28;20065;-78
2021/06/15 06:43:48;;;;;;;20.60;17.33;;;;;;;22.34;56.09;100704.91;5012046;28;20050;-78
2021/06/15 06:46:15;;;;;;;23.48;16.83;;;;;;;22.48;55.61;100704.25;5015923;28;20071;-78
2021/06/15 06:48:44;;;;;;;22.95;17.90;;;;;;;22.62;55.15;100712.91;5009847;28;20061;-79
2021/06/15 06:51:11;;;;;;;21.60;18.63;;;;;;;22.71;54.93;100715.41;5008431;28;20058;-77
2021/06/15 06:53:39;;;;;;;21.50;17.63;;;;;;;22.86;54.58;100713.50;5011221;28;20076;-77
2021/06/15 06:56:07;;;;;;;19.38;17.38;;;;;;;22.93;54.10;100713.59;5012047;28;20050;-78
2021/06/15 06:58:35;;;;;;;21.60;17.38;;;;;;;23.05;54.08;100718.97;5005862;28;20061;-78
2021/06/15 07:01:03;;;;;;;18.42;16.40;;;;;;;23.16;54.38;100730.44;4995152;28;20066;-78
2021/06/15 07:03:31;;;;;;;20.25;17.25;;;;;;;23.29;53.33;100728.91;5013361;28;20050;-78
2021/06/15 07:06:00;;;;;;;18.75;16.08;;;;;;;23.46;53.35;100718.03;5014704;28;20046;-79
2021/06/15 07:08:27;;;;;;;20.27;17.30;;;;;;;23.66;52.66;100727.06;5000777;28;20432;-80
2021/06/15 07:10:55;;;;;;;21.77;16.55;;;;;;;23.83;51.77;100723.56;5008443;28;20484;-77
2021/06/15 07:13:23;;;;;;;22.23;18.08;;;;;;;23.96;51.68;100718.31;4999246;28;20365;-77
2021/06/15 07:15:50;;;;;;;19.17;16.73;;;;;;;23.94;52.05;100717.06;5011518;28;20057;-77
2021/06/15 07:18:18;;;;;;;20.63;17.85;;;;;;;23.98;50.98;100727.28;4994589;28;20062;-78
2021/06/15 07:20:45;;;;;;;22.92;17.55;;;;;;;24.09;51.00;100727.31;5001784;28;20061;-78
2021/06/15 07:23:14;;;;;;;22.15;18.95;;;;;;;24.17;50.83;100722.44;5016309;28;20480;-78
2021/06/15 07:25:42;;;;;;;18.40;16.40;;;;;;;24.33;50.43;100722.09;5009252;28;20054;-78
2021/06/15 07:28:09;;;;;;;19.58;17.38;;;;;;;24.40;50.55;100724.94;5012816;28;20069;-80
2021/06/15 07:30:36;;;;;;;20.75;17.90;;;;;;;24.53;50.33;100729.09;5015038;28;20088;-79
2021/06/15 07:33:04;;;;;;;19.90;17.77;;;;;;;24.69;50.55;100718.13;5014672;28;20061;-79
2021/06/15 07:35:31;;;;;;;19.17;16.90;;;;;;;24.85;49.88;100723.41;5009926;28;20419;-78
2021/06/15 07:37:58;;;;;;;23.65;18.25;;;;;;;25.06;49.04;100728.28;5010903;28;20061;-78
2021/06/15 07:40:28;;;;;;;21.30;17.88;;;;;;;25.18;49.41;100729.09;5012482;28;20072;-78
2021/06/15 07:42:58;;;;;;;19.67;16.80;;;;;;;25.31;48.95;100728.28;5006929;28;20487;-78
2021/06/15 07:45:28;;;;;;;20.90;17.40;;;;;;;25.36;48.62;100732.78;5010450;28;20045;-79
2021/06/15 07:47:56;;;;;;;19.65;17.55;;;;;;;25.57;48.02;100728.25;4999455;28;20050;-79
2021/06/15 07:50:24;;;;;;;21.73;17.50;;;;;;;25.90;47.51;100730.63;5015398;28;20120;-79
2021/06/15 07:52:52;;;;;;;20.73;17.40;;;;;;;26.23;46.51;100739.84;5015170;28;20054;-78
2021/06/15 07:55:19;;;;;;;23.10;16.38;;;;;;;26.53;45.57;100729.88;5011473;28;20046;-78
2021/06/15 07:57:48;;;;;;;19.23;16.88;;;;;;;26.64;44.60;100721.25;5007836;28;20054;-77
2021/06/15 08:00:17;;;;;;;19.42;16.15;;;;;;;27.63;43.07;100723.66;5012569;28;20064;-79
2021/06/15 08:02:48;;;;;;;22.45;17.25;;;;;;;28.62;40.56;100711.31;5009765;28;20065;-78
2021/06/15 08:05:16;;;;;;;21.00;16.25;;;;;;;29.33;38.68;100726.53;5014783;28;20464;-79
2021/06/15 08:07:44;;;;;;;19.67;14.23;;;;;;;29.90;36.18;100719.72;5012046;28;20062;-78
2021/06/15 08:10:12;;;;;;;19.38;15.88;;;;;;;30.63;35.65;100727.56;5017255;28;20057;-79
2021/06/15 08:12:40;;;;;;;15.77;14.10;;;;;;;31.29;34.37;100722.63;5002797;28;20088;-79
2021/06/15 08:15:09;;;;;;;16.13;14.40;;;;;;;31.86;33.71;100723.94;5003636;28;20073;-78
2021/06/15 08:17:36;;;;;;;17.90;15.18;;;;;;;32.47;31.84;100724.19;5002277;28;20403;-79
2021/06/15 08:20:05;;;;;;;16.50;14.77;;;;;;;32.90;31.04;100726.50;5013809;28;20054;-78
2021/06/15 08:22:32;;;;;;;16.17;14.48;;;;;;;33.08;30.93;100723.03;5001244;28;20057;-80
2021/06/15 08:24:59;;;;;;;16.77;14.88;;;;;;;33.47;30.46;100717.16;5007654;28;20427;-79
2021/06/15 08:27:27;;;;;;;18.05;15.43;;;;;;;33.89;29.29;100719.75;5017933;28;20054;-79
2021/06/15 08:29:54;;;;;;;17.60;15.85;;;;;;;34.35;28.50;100723.75;5017805;28;20470;-80
2021/06/15 08:32:23;;;;;;;14.73;13.20;;;;;;;35.25;26.97;100720.06;5017197;28;20057;-77
2021/06/15 08:34:51;;;;;;;17.38;13.98;;;;;;;35.92;26.01;100718.31;5009892;28;20065;-78
2021/06/15 08:37:18;;;;;;;14.82;13.23;;;;;;;36.52;25.75;100718.84;5008203;28;20041;-78
2021/06/15 08:39:46;;;;;;;16.30;13.75;;;;;;;37.17;24.34;100708.53;5020253;28;20057;-78
2021/06/15 08:42:15;;;;;;;14.67;12.93;;;;;;;37.79;23.82;100711.91;5012139;28;20510;-77
2021/06/15 08:44:42;;;;;;;13.38;11.98;;;;;;;37.94;22.71;100709.78;5017324;28;20699;-78
2021/06/15 08:47:14;;;;;;;13.68;11.88;;;;;;;38.29;22.25;100699.59;5013022;28;20058;-78
2021/06/15 08:49:46;;;;;;;12.82;11.55;;;;;;;38.82;21.38;100707.34;5018557;28;20057;-78
2021/06/15 08:52:15;;;;;;;12.93;10.45;;;;;;;39.18;20.71;100706.00;5004317;28;20058;-78
2021/06/15 08:54:42;;;;;;;;;;;;;;;39.48;21.22;100705.88;5014155;28;20057;-78
2021/06/15 08:57:10;;;;;;;14.77;12.13;;;;;;;39.48;21.18;100711.72;5016084;28;19928;-79
2021/06/15 08:59:38;;;;;;;12.77;11.57;;;;;;;39.65;20.58;100714.81;5018331;28;20054;-78
2021/06/15 09:02:08;;;;;;;12.55;11.25;;;;;;;40.00;20.37;100716.00;5014506;28;20057;-78
2021/06/15 09:04:37;;;;;;;10.95;9.85;;;;;;;40.60;19.33;100722.91;5019216;28;20483;-78
2021/06/15 09:07:06;;;;;;;12.35;11.15;;;;;;;40.85;18.83;100714.63;5004247;28;20050;-77
2021/06/15 09:09:41;;;;;;;13.65;12.25;;;;;;;41.42;18.97;100728.22;5015760;28;20054;-78
2021/06/15 09:12:09;;;;;;;14.20;12.15;;;;;;;41.31;18.55;100716.47;5012608;28;20065;-79
2021/06/15 09:14:43;;;;;;;14.13;12.40;;;;;;;40.77;19.53;100723.84;5016569;28;20454;-79
2021/06/15 09:17:12;;;;;;;12.75;11.45;;;;;;;40.80;19.32;100721.22;5014807;28;20057;-80
2021/06/15 09:19:42;;;;;;;13.82;12.50;;;;;;;40.39;20.34;100722.22;5014626;28;20499;-80
2021/06/15 09:22:24;;;;;;;14.90;13.48;;;;;;;40.28;19.97;100719.16;5001662;28;20054;-80
2021/06/15 09:24:53;;;;;;;13.80;10.70;;;;;;;40.24;19.48;100719.41;4997878;28;20447;-82
2021/06/15 09:27:21;;;;;;;13.68;11.27;;;;;;;40.49;20.38;100719.91;4996249;28;20057;-82
2021/06/15 09:29:50;;;;;;;13.57;12.18;;;;;;;40.25;19.92;100714.38;5010226;28;20419;-82
2021/06/15 09:32:20;;;;;;;14.57;13.15;;;;;;;40.02;19.58;100713.38;5013106;28;20184;-78
2021/06/15 09:34:49;;;;;;;14.00;12.05;;;;;;;40.23;19.85;100717.81;5011211;28;20376;-79
2021/06/15 09:37:17;;;;;;;12.43;11.25;;;;;;;41.03;19.55;100714.16;5008002;28;20423;-77
2021/06/15 09:39:46;;;;;;;11.88;10.52;;;;;;;41.88;17.87;100706.56;5007595;28;20488;-76
2021/06/15 09:42:14;;;;;;;11.98;10.85;;;;;;;42.37;17.35;100706.34;5002191;28;20070;-76
2021/06/15 09:44:41;;;;;;;11.93;9.32;;;;;;;43.22;16.82;100697.41;5003669;28;20377;-76
2021/06/15 09:47:09;;;;;;;12.50;10.93;;;;;;;43.28;16.08;100704.06;4999825;28;20061;-78
2021/06/15 09:49:38;;;;;;;11.05;9.95;;;;;;;43.97;15.81;100703.94;5009239;28;20494;-77
2021/06/15 09:52:18;;;;;;;9.82;8.90;;;;;;;43.66;16.95;100704.44;5000517;28;20058;-79
2021/06/15 09:54:50;;;;;;;11.40;10.40;;;;;;;44.31;15.47;100706.66;4998658;28;20049;-77
2021/06/15 09:57:21;;;;;;;12.48;11.27;;;;;;;45.06;14.56;100702.44;5001759;28;20061;-77
2021/06/15 10:00:13;;;;;;;11.43;10.23;;;;;;;45.34;14.07;100704.25;5005930;28;20380;-78
2021/06/15 10:02:52;;;;;;;10.93;9.82;;;;;;;45.67;14.00;100702.22;5010263;28;20069;-80
2021/06/15 10:05:31;;;;;;;10.88;9.88;;;;;;;46.21;13.04;100694.44;5012709;28;20133;-79
2021/06/15 10:08:00;;;;;;;9.30;8.13;;;;;;;46.51;13.29;100694.19;4999499;28;20058;-78
2021/06/15 10:10:31;;;;;;;8.82;7.43;;;;;;;46.40;13.07;100695.19;5013719;28;20411;-78
2021/06/15 10:12:59;;;;;;;10.55;9.57;;;;;;;46.24;12.93;100696.25;5001284;28;20049;-78
2021/06/15 10:15:28;;;;;;;;;;;;;;;46.09;13.97;100696.78;5014196;28;20054;-77
2021/06/15 10:17:56;;;;;;;10.43;8.23;;;;;;;46.77;13.57;100697.22;4977451;28;19936;-77
2021/06/15 10:20:26;;;;;;;11.68;9.50;;;;;;;46.85;12.92;100684.72;5009898;28;20250;-79
2021/06/15 10:22:54;;;;;;;8.77;7.95;;;;;;;46.35;13.34;100684.28;5012526;28;20046;-77
2021/06/15 10:25:24;;;;;;;8.32;6.75;;;;;;;46.59;13.12;100692.16;5013763;28;20440;-77
2021/06/15 10:27:56;;;;;;;7.38;6.63;;;;;;;46.60;12.70;100690.00;4993554;28;20061;-78
2021/06/15 10:30:30;;;;;;;8.45;7.65;;;;;;;47.02;12.16;100693.22;4994964;28;20061;-77
2021/06/15 10:33:00;;;;;;;7.65;6.65;;;;;;;46.52;12.39;100686.94;4993265;28;20066;-78
2021/06/15 10:35:43;;;;;;;4.70;3.92;;;;;;;46.41;11.04;100693.03;5009138;28;20129;-77
2021/06/15 10:38:11;;;;;;;4.32;3.58;;;;;;;45.74;11.15;100689.78;5012787;28;20061;-77
2021/06/15 10:40:41;;;;;;;8.20;5.20;;;;;;;44.87;13.46;100696.50;5011513;28;20058;-76
2021/06/15 10:43:15;;;;;;;7.13;5.53;;;;;;;44.44;13.61;100687.56;4992959;28;20411;-76
2021/06/15 10:45:43;;;;;;;5.95;5.35;;;;;;;44.11;14.33;100698.28;5001814;28;20102;-76
2021/06/15 10:48:50;;;;;;;7.75;6.95;;;;;;;43.28;15.96;100686.47;5008984;28;20050;-77
2021/06/15 10:51:45;;;;;;;9.48;7.28;;;;;;;42.77;16.20;100683.66;5005021;28;20081;-76
2021/06/15 10:54:41;;;;;;;7.80;7.00;;;;;;;42.44;16.13;100697.03;4992995;28;20076;-76
2021/06/15 10:57:18;;;;;;;8.35;6.82;;;;;;;41.49;16.19;100698.44;5007362;28;20062;-77
2021/06/15 11:00:14;;;;;;;7.05;6.30;;;;;;;41.74;16.75;100690.84;5012633;28;20046;-77
2021/06/15 11:03:01;;;;;;;5.80;4.97;;;;;;;41.33;15.94;100685.38;5011744;28;20050;-77
2021/06/15 11:05:40;;;;;;;4.10;3.40;;;;;;;40.54;16.46;100695.78;5010056;28;20349;-77
2021/06/15 11:08:23;;;;;;;5.32;3.65;;;;;;;39.86;17.04;100703.13;5012518;28;20050;-77
2021/06/15 11:10:53;;;;;;;5.75;3.35;;;;;;;39.16;17.75;100696.16;4991905;28;20407;-77
2021/06/15 11:13:42;;;;;;;7.75;4.72;;;;;;;38.91;18.12;100697.66;4992576;28;20065;-77
2021/06/15 11:16:33;;;;;;;7.60;5.38;;;;;;;38.61;19.18;100708.59;4991584;28;20498;-77
2021/06/15 11:19:38;;;;;;;7.63;5.82;;;;;;;38.36;20.29;100699.97;4993805;28;20094;-78
2021/06/15 11:22:13;;;;;;;9.20;6.60;;;;;;;38.58;20.08;100704.59;5014548;28;20054;-78
2021/06/15 11:24:48;;;;;;;7.13;5.47;;;;;;;38.69;19.18;100695.22;5015578;28;20065;-77
2021/06/15 11:27:19;;;;;;;8.98;5.80;;;;;;;38.74;19.61;100695.28;5013445;28;20058;-78
2021/06/15 11:29:47;;;;;;;6.00;5.22;;;;;;;38.95;19.84;100695.34;5015662;28;20058;-78
2021/06/15 11:32:24;;;;;;;8.10;6.50;;;;;;;40.59;18.24;100686.25;5013681;28;20058;-78